createdAt,value
2022-12-01T00:01:09.867Z,9.52
2022-12-01T00:03:36.592Z,9.49
2022-12-01T00:06:11.206Z,9.46
2022-12-01T00:08:37.923Z,9.43
2022-12-01T00:11:09.955Z,9.44
2022-12-01T00:13:36.511Z,9.44
2022-12-01T00:16:12.806Z,9.43
2022-12-01T00:18:39.443Z,9.42
2022-12-01T00:21:06.262Z,9.43
2022-12-01T00:23:33.070Z,9.40
2022-12-01T00:26:05.715Z,9.40
2022-12-01T00:28:32.272Z,9.38
2022-12-01T00:31:00.150Z,9.37
2022-12-01T00:33:26.647Z,9.35
2022-12-01T00:36:00.058Z,9.34
2022-12-01T00:38:26.851Z,9.34
2022-12-01T00:40:53.453Z,9.30
2022-12-01T00:43:20.057Z,9.27
2022-12-01T00:45:46.860Z,9.24
2022-12-01T00:48:13.560Z,9.22
2022-12-01T00:50:40.045Z,9.20
2022-12-01T00:53:07.602Z,9.17
2022-12-01T00:55:34.118Z,9.16
2022-12-01T00:58:00.779Z,9.13
2022-12-01T01:00:27.435Z,9.10
2022-12-01T01:02:54.005Z,9.10
2022-12-01T01:05:20.522Z,9.08
2022-12-01T01:07:47.306Z,9.06
2022-12-01T01:10:13.903Z,9.02
2022-12-01T01:12:40.484Z,9.00
2022-12-01T01:15:07.707Z,9.01
2022-12-01T01:17:34.338Z,9.00
2022-12-01T01:20:00.884Z,8.98
2022-12-01T01:22:27.379Z,8.93
2022-12-01T01:24:53.914Z,8.91
2022-12-01T01:27:20.453Z,8.93
2022-12-01T01:29:47.262Z,8.95
2022-12-01T01:32:14.064Z,8.97
2022-12-01T01:34:40.611Z,9.00
2022-12-01T01:37:07.134Z,9.01
2022-12-01T01:39:33.681Z,9.01
2022-12-01T01:42:00.145Z,9.00
2022-12-01T01:44:45.154Z,9.03
2022-12-01T01:47:12.245Z,8.98
2022-12-01T01:49:39.784Z,9.00
2022-12-01T01:52:06.458Z,9.01
2022-12-01T01:54:41.865Z,9.03
2022-12-01T01:57:10.380Z,9.01
2022-12-01T01:59:48.843Z,9.01
2022-12-01T02:02:15.664Z,9.01
2022-12-01T02:04:46.052Z,9.01
2022-12-01T02:07:17.153Z,9.03
2022-12-01T02:09:43.908Z,9.03
2022-12-01T02:12:47.523Z,9.01
2022-12-01T02:15:23.560Z,8.99
2022-12-01T02:18:21.028Z,8.94
2022-12-01T02:21:02.696Z,8.93
2022-12-01T02:23:57.271Z,8.96
2022-12-01T02:27:03.994Z,8.94
2022-12-01T02:30:07.747Z,8.90
2022-12-01T02:33:12.930Z,8.87
2022-12-01T02:35:55.970Z,8.86
2022-12-01T02:38:32.151Z,8.87
2022-12-01T02:41:29.656Z,8.89
2022-12-01T02:44:01.778Z,8.89
2022-12-01T02:46:30.605Z,8.86
2022-12-01T02:48:59.816Z,8.86
2022-12-01T02:51:31.687Z,8.87
2022-12-01T02:54:02.919Z,8.86
2022-12-01T02:56:29.834Z,8.84
2022-12-01T02:58:56.540Z,8.84
2022-12-01T03:01:32.486Z,8.84
2022-12-01T03:04:17.004Z,8.82
2022-12-01T03:06:54.399Z,8.82
2022-12-01T03:09:33.519Z,8.83
2022-12-01T03:12:34.483Z,8.83
2022-12-01T03:15:10.555Z,8.80
2022-12-01T03:17:49.601Z,8.77
2022-12-01T03:20:28.283Z,8.75
2022-12-01T03:22:59.945Z,8.74
2022-12-01T03:25:28.442Z,8.74
2022-12-01T03:28:20.089Z,8.76
2022-12-01T03:30:43.717Z,8.64
2022-12-01T03:33:19.082Z,8.61
2022-12-01T03:35:54.542Z,8.53
2022-12-01T03:38:24.616Z,8.48
2022-12-01T03:40:54.986Z,8.53
2022-12-01T03:43:25.276Z,8.58
2022-12-01T03:46:17.641Z,8.67
2022-12-01T03:48:44.561Z,8.77
2022-12-01T03:51:29.439Z,8.78
2022-12-01T03:54:27.314Z,8.79
2022-12-01T03:56:56.719Z,8.78
2022-12-01T03:59:24.327Z,8.86
2022-12-01T04:01:51.328Z,8.98
2022-12-01T04:04:17.955Z,9.02
2022-12-01T04:06:46.865Z,8.96
2022-12-01T04:09:13.801Z,8.93
2022-12-01T04:11:59.124Z,8.91
2022-12-01T04:14:25.819Z,8.92
2022-12-01T04:16:52.514Z,8.93
2022-12-01T04:19:19.010Z,8.95
2022-12-01T04:21:45.585Z,8.94
2022-12-01T04:24:13.165Z,8.92
2022-12-01T04:26:40.080Z,8.93
2022-12-01T04:29:10.075Z,8.98
2022-12-01T04:31:36.865Z,9.02
2022-12-01T04:34:03.528Z,9.07
2022-12-01T04:36:31.758Z,9.14
2022-12-01T04:38:58.301Z,9.23
2022-12-01T04:41:24.892Z,9.27
2022-12-01T04:43:55.493Z,9.28
2022-12-01T04:46:22.999Z,9.27
2022-12-01T04:48:49.684Z,9.25
2022-12-01T04:51:16.249Z,9.25
2022-12-01T04:53:43.638Z,9.24
2022-12-01T04:56:10.378Z,9.24
2022-12-01T04:58:40.530Z,9.25
2022-12-01T05:01:09.954Z,9.24
2022-12-01T05:03:38.298Z,9.23
2022-12-01T05:06:11.101Z,9.24
2022-12-01T05:08:37.961Z,9.27
2022-12-01T05:11:07.565Z,9.31
2022-12-01T05:13:36.811Z,9.31
2022-12-01T05:16:13.259Z,9.30
2022-12-01T05:18:40.294Z,9.31
2022-12-01T05:21:09.155Z,9.31
2022-12-01T05:23:36.897Z,9.30
2022-12-01T05:26:05.884Z,9.30
2022-12-01T05:28:32.751Z,9.32
2022-12-01T05:30:59.685Z,9.33
2022-12-01T05:33:27.083Z,9.34
2022-12-01T05:35:53.638Z,9.37
2022-12-01T05:38:20.547Z,9.35
2022-12-01T05:40:54.098Z,9.37
2022-12-01T05:43:28.348Z,9.37
2022-12-01T05:45:55.736Z,9.41
2022-12-01T05:48:22.316Z,9.44
2022-12-01T05:50:48.812Z,9.46
2022-12-01T05:53:15.770Z,9.45
2022-12-01T05:55:42.463Z,9.45
2022-12-01T05:58:09.169Z,9.47
2022-12-01T06:00:40.865Z,9.47
2022-12-01T06:03:11.689Z,9.50
2022-12-01T06:05:38.426Z,9.50
2022-12-01T06:08:04.952Z,9.51
2022-12-01T06:10:31.460Z,9.52
2022-12-01T06:12:57.986Z,9.52
2022-12-01T06:15:24.512Z,9.51
2022-12-01T06:17:51.066Z,9.51
2022-12-01T06:20:17.860Z,9.50
2022-12-01T06:22:44.382Z,9.48
2022-12-01T06:25:11.148Z,9.47
2022-12-01T06:27:37.811Z,9.45
2022-12-01T06:30:05.550Z,9.46
2022-12-01T06:32:32.089Z,9.46
2022-12-01T06:34:58.778Z,9.45
2022-12-01T06:37:27.060Z,9.39
2022-12-01T06:39:53.719Z,9.28
2022-12-01T06:42:20.320Z,9.19
2022-12-01T06:44:46.839Z,9.14
2022-12-01T06:47:13.476Z,9.15
2022-12-01T06:49:40.141Z,9.19
2022-12-01T06:52:06.614Z,9.23
2022-12-01T06:54:33.519Z,9.29
2022-12-01T06:57:00.048Z,9.27
2022-12-01T06:59:26.810Z,9.28
2022-12-01T07:01:53.815Z,9.29
2022-12-01T07:04:20.731Z,9.34
2022-12-01T07:06:47.341Z,9.43
2022-12-01T07:09:13.918Z,9.50
2022-12-01T07:11:40.461Z,9.57
2022-12-01T07:14:07.042Z,9.60
2022-12-01T07:16:33.726Z,9.65
2022-12-01T07:19:00.331Z,9.71
2022-12-01T07:21:26.863Z,9.79
2022-12-01T07:23:54.519Z,9.86
2022-12-01T07:26:21.466Z,9.92
2022-12-01T07:28:48.255Z,9.97
2022-12-01T07:31:16.993Z,10.00
2022-12-01T07:33:43.750Z,10.03
2022-12-01T07:36:11.726Z,10.08
2022-12-01T07:38:39.041Z,10.13
2022-12-01T07:41:07.501Z,10.20
2022-12-01T07:43:34.915Z,10.22
2022-12-01T07:46:05.802Z,10.25
2022-12-01T07:48:32.711Z,10.29
2022-12-01T07:50:59.226Z,10.34
2022-12-01T07:53:25.810Z,10.40
2022-12-01T07:55:52.400Z,10.43
2022-12-01T07:58:18.975Z,10.48
2022-12-01T08:00:45.699Z,10.52
2022-12-01T08:03:12.226Z,10.49
2022-12-01T08:05:38.678Z,10.37
2022-12-01T08:08:05.389Z,10.17
2022-12-01T08:10:32.201Z,10.02
2022-12-01T08:12:58.713Z,9.90
2022-12-01T08:15:25.496Z,9.92
2022-12-01T08:17:52.120Z,10.01
2022-12-01T08:20:23.681Z,10.16
2022-12-01T08:22:50.774Z,10.31
2022-12-01T08:25:17.526Z,10.37
2022-12-01T08:27:44.026Z,10.37
2022-12-01T08:30:10.948Z,10.43
2022-12-01T08:32:37.407Z,10.47
2022-12-01T08:35:04.376Z,10.47
2022-12-01T08:37:30.859Z,10.57
2022-12-01T08:39:57.416Z,10.75
2022-12-01T08:42:23.964Z,10.94
2022-12-01T08:44:51.789Z,11.08
2022-12-01T08:47:19.031Z,11.20
2022-12-01T08:49:45.799Z,11.28
2022-12-01T08:52:12.344Z,11.34
2022-12-01T08:54:38.855Z,11.37
2022-12-01T08:57:05.461Z,11.43
2022-12-01T08:59:31.970Z,11.48
2022-12-01T09:02:00.467Z,11.51
2022-12-01T09:04:30.243Z,11.56
2022-12-01T09:06:57.614Z,11.68
2022-12-01T09:09:27.330Z,11.76
2022-12-01T09:11:54.678Z,11.79
2022-12-01T09:14:23.405Z,11.83
2022-12-01T09:16:50.895Z,11.82
2022-12-01T09:19:23.651Z,11.82
2022-12-01T09:21:51.393Z,11.82
2022-12-01T09:24:18.191Z,11.82
2022-12-01T09:26:44.688Z,11.86
2022-12-01T09:29:13.793Z,11.90
2022-12-01T09:31:41.247Z,11.96
2022-12-01T09:34:11.363Z,11.98
2022-12-01T09:36:38.489Z,12.03
2022-12-01T09:39:07.010Z,12.11
2022-12-01T09:42:07.648Z,12.15
2022-12-01T09:44:40.080Z,12.23
2022-12-01T09:47:11.932Z,12.26
2022-12-01T09:49:50.382Z,12.26
2022-12-01T09:52:19.822Z,12.29
2022-12-01T09:54:49.926Z,12.34
2022-12-01T09:57:30.409Z,12.32
2022-12-01T09:59:58.826Z,12.34
2022-12-01T10:02:41.294Z,12.36
2022-12-01T10:05:15.175Z,12.38
2022-12-01T10:07:49.171Z,12.42
2022-12-01T10:10:40.253Z,12.47
2022-12-01T10:13:28.275Z,12.52
2022-12-01T10:15:54.863Z,12.52
2022-12-01T10:18:39.465Z,12.50
2022-12-01T10:21:11.936Z,12.52
2022-12-01T10:24:10.930Z,12.56
2022-12-01T10:26:54.135Z,12.63
2022-12-01T10:29:36.811Z,12.66
2022-12-01T10:32:21.640Z,12.66
2022-12-01T10:34:48.658Z,12.70
2022-12-01T10:37:22.046Z,12.74
2022-12-01T10:39:52.083Z,12.80
2022-12-01T10:42:34.868Z,12.82
2022-12-01T10:45:04.332Z,12.83
2022-12-01T10:47:32.093Z,12.85
2022-12-01T10:49:58.742Z,12.88
2022-12-01T10:52:39.056Z,12.88
2022-12-01T10:55:24.740Z,12.92
2022-12-01T10:57:54.438Z,12.97
2022-12-01T11:00:58.553Z,12.91
2022-12-01T11:03:24.153Z,12.89
2022-12-01T11:05:53.793Z,12.88
2022-12-01T11:08:29.660Z,12.90
2022-12-01T11:10:56.762Z,12.91
2022-12-01T11:13:31.707Z,12.96
2022-12-01T11:16:04.182Z,13.00
2022-12-01T11:18:38.716Z,13.04
2022-12-01T11:21:05.233Z,13.07
2022-12-01T11:23:31.767Z,13.07
2022-12-01T11:26:01.262Z,13.04
2022-12-01T11:28:28.167Z,13.05
2022-12-01T11:31:00.839Z,13.09
2022-12-01T11:33:28.546Z,13.08
2022-12-01T11:35:55.460Z,13.10
2022-12-01T11:38:29.707Z,13.10
2022-12-01T11:40:57.827Z,13.12
2022-12-01T11:43:28.627Z,13.12
2022-12-01T11:45:57.209Z,13.10
2022-12-01T11:48:29.377Z,13.14
2022-12-01T11:51:26.583Z,13.14
2022-12-01T11:54:24.829Z,13.14
2022-12-01T11:57:17.368Z,13.15
2022-12-01T11:59:39.121Z,13.17
2022-12-01T12:02:30.260Z,13.20
2022-12-01T12:05:22.778Z,13.19
2022-12-01T12:08:34.239Z,13.16
2022-12-01T12:11:24.666Z,13.13
2022-12-01T12:14:12.687Z,13.16
2022-12-01T12:16:50.603Z,13.17
2022-12-01T12:20:06.841Z,13.22
2022-12-01T12:22:58.851Z,13.23
2022-12-01T12:25:34.404Z,13.22
2022-12-01T12:28:36.350Z,13.26
2022-12-01T12:31:32.023Z,13.28
2022-12-01T12:34:07.931Z,13.28
2022-12-01T12:36:42.511Z,13.32
2022-12-01T12:39:20.135Z,13.33
2022-12-01T12:41:49.084Z,13.29
2022-12-01T12:44:24.657Z,13.27
2022-12-01T12:47:00.002Z,13.28
2022-12-01T12:49:50.154Z,13.29
2022-12-01T12:52:20.908Z,13.31
2022-12-01T12:55:13.295Z,13.31
2022-12-01T12:57:54.364Z,13.30
2022-12-01T13:00:26.755Z,13.32
2022-12-01T13:03:15.434Z,13.31
2022-12-01T13:05:45.258Z,13.34
2022-12-01T13:08:16.314Z,13.36
2022-12-01T13:10:49.918Z,13.35
2022-12-01T13:13:26.181Z,13.31
2022-12-01T13:15:54.944Z,13.27
2022-12-01T13:18:41.898Z,13.27
2022-12-01T13:21:15.578Z,13.24
2022-12-01T13:23:43.298Z,13.22
2022-12-01T13:26:10.479Z,13.22
2022-12-01T13:28:42.911Z,13.23
2022-12-01T13:31:13.633Z,13.25
2022-12-01T13:34:00.213Z,13.26
2022-12-01T13:36:46.331Z,13.25
2022-12-01T13:39:37.161Z,13.26
2022-12-01T13:42:21.775Z,13.27
2022-12-01T13:45:01.337Z,13.25
2022-12-01T13:47:38.664Z,13.24
2022-12-01T13:50:40.813Z,13.23
2022-12-01T13:53:17.740Z,13.27
2022-12-01T13:56:02.788Z,13.30
2022-12-01T13:58:35.377Z,13.31
2022-12-01T14:01:20.733Z,13.31
2022-12-01T14:03:57.260Z,13.28
2022-12-01T14:06:28.038Z,13.28
2022-12-01T14:08:59.115Z,13.28
2022-12-01T14:11:30.230Z,13.26
2022-12-01T14:14:03.763Z,13.25
2022-12-01T14:16:48.003Z,13.19
2022-12-01T14:19:38.987Z,13.17
2022-12-01T14:22:07.126Z,13.15
2022-12-01T14:24:52.941Z,13.13
2022-12-01T14:27:42.606Z,13.12
2022-12-01T14:30:46.466Z,13.09
2022-12-01T14:36:24.996Z,13.06
2022-12-01T14:38:59.500Z,13.06
2022-12-01T14:41:45.394Z,13.04
2022-12-01T14:44:27.453Z,13.01
2022-12-01T14:46:54.210Z,12.97
2022-12-01T14:49:25.082Z,12.92
2022-12-01T14:51:56.470Z,12.87
2022-12-01T14:54:43.278Z,12.82
2022-12-01T14:57:16.509Z,12.77
2022-12-01T14:59:43.542Z,12.80
2022-12-01T15:02:12.269Z,12.78
2022-12-01T15:05:08.673Z,12.77
2022-12-01T15:07:44.508Z,12.80
2022-12-01T15:10:26.163Z,12.83
2022-12-01T15:12:54.169Z,12.83
2022-12-01T15:15:24.115Z,12.84
2022-12-01T15:17:52.111Z,12.85
2022-12-01T15:20:36.120Z,12.85
2022-12-01T15:23:09.349Z,12.84
2022-12-01T15:25:37.072Z,12.83
2022-12-01T15:28:22.772Z,12.82
2022-12-01T15:30:54.131Z,12.84
2022-12-01T15:33:40.917Z,12.84
2022-12-01T15:36:08.078Z,12.85
2022-12-01T15:38:36.768Z,12.84
2022-12-01T15:44:01.992Z,12.80
2022-12-01T15:46:30.579Z,12.76
2022-12-01T15:49:29.583Z,12.71
2022-12-01T15:52:07.998Z,12.63
2022-12-01T15:54:34.697Z,12.58
2022-12-01T15:57:03.541Z,12.53
2022-12-01T15:59:36.681Z,12.48
2022-12-01T16:02:15.984Z,12.42
2022-12-01T16:04:43.629Z,12.38
2022-12-01T16:07:11.139Z,12.39
2022-12-01T16:09:42.953Z,12.40
2022-12-01T16:12:09.470Z,12.42
2022-12-01T16:14:36.713Z,12.42
2022-12-01T16:17:04.786Z,12.37
2022-12-01T16:19:33.007Z,12.31
2022-12-01T16:22:10.791Z,12.25
2022-12-01T16:24:53.664Z,12.15
2022-12-01T16:27:23.570Z,12.03
2022-12-01T16:29:55.837Z,11.94
2022-12-01T16:32:35.734Z,11.87
2022-12-01T16:35:04.408Z,11.76
2022-12-01T16:37:31.512Z,11.70
2022-12-01T16:39:58.813Z,11.65
2022-12-01T16:42:27.246Z,11.63
2022-12-01T16:44:56.037Z,11.64
2022-12-01T16:47:24.245Z,11.68
2022-12-01T16:49:52.104Z,11.73
2022-12-01T16:55:14.695Z,11.76
2022-12-01T16:57:41.212Z,11.74
2022-12-01T17:00:09.256Z,11.73
2022-12-01T17:02:36.233Z,11.74
2022-12-01T17:05:02.746Z,11.75
2022-12-01T17:07:29.290Z,11.73
2022-12-01T17:09:55.898Z,11.70
2022-12-01T17:12:26.271Z,11.66
2022-12-01T17:14:52.915Z,11.65
2022-12-01T17:17:19.492Z,11.64
2022-12-01T17:19:46.013Z,11.63
2022-12-01T17:22:12.564Z,11.61
2022-12-01T17:24:39.130Z,11.60
2022-12-01T17:27:05.700Z,11.58
2022-12-01T17:29:32.266Z,11.56
2022-12-01T17:31:58.811Z,11.56
2022-12-01T17:34:25.490Z,11.56
2022-12-01T17:36:52.198Z,11.54
2022-12-01T17:39:19.698Z,11.51
2022-12-01T17:41:46.139Z,11.49
2022-12-01T17:44:12.742Z,11.45
2022-12-01T17:46:41.660Z,11.41
2022-12-01T17:49:10.665Z,11.40
2022-12-01T17:51:37.400Z,11.38
2022-12-01T17:54:04.360Z,11.37
2022-12-01T17:56:31.038Z,11.39
2022-12-01T17:58:57.542Z,11.40
2022-12-01T18:01:29.998Z,11.37
2022-12-01T18:03:57.621Z,11.34
2022-12-01T18:06:25.589Z,11.30
2022-12-01T18:08:53.102Z,11.30
2022-12-01T18:11:20.936Z,11.30
2022-12-01T18:13:50.292Z,11.28
2022-12-01T18:16:26.691Z,11.27
2022-12-01T18:18:54.063Z,11.23
2022-12-01T18:21:22.852Z,11.23
2022-12-01T18:24:00.959Z,11.22
2022-12-01T18:26:29.532Z,11.23
2022-12-01T18:28:58.722Z,11.23
2022-12-01T18:31:25.591Z,11.21
2022-12-01T18:33:52.750Z,11.23
2022-12-01T18:36:23.650Z,11.24
2022-12-01T18:38:51.672Z,11.23
2022-12-01T18:41:18.556Z,11.22
2022-12-01T18:43:45.809Z,11.20
2022-12-01T18:46:13.948Z,11.18
2022-12-01T18:48:48.853Z,11.19
2022-12-01T18:51:16.453Z,11.18
2022-12-01T18:53:45.371Z,11.18
2022-12-01T18:56:12.458Z,11.18
2022-12-01T18:58:39.995Z,11.16
2022-12-01T19:01:20.980Z,11.15
2022-12-01T19:03:48.019Z,11.14
2022-12-01T19:06:14.956Z,11.13
2022-12-01T19:08:41.525Z,11.14
2022-12-01T19:11:08.293Z,11.16
2022-12-01T19:13:35.439Z,11.16
2022-12-01T19:16:06.636Z,11.16
2022-12-01T19:18:33.183Z,11.14
2022-12-01T19:21:04.230Z,11.11
2022-12-01T19:23:31.136Z,11.09
2022-12-01T19:25:57.880Z,11.06
2022-12-01T19:28:24.758Z,11.03
2022-12-01T19:30:51.228Z,11.01
2022-12-01T19:33:17.792Z,11.01
2022-12-01T19:35:44.315Z,11.00
2022-12-01T19:38:10.824Z,10.99
2022-12-01T19:40:38.527Z,10.97
2022-12-01T19:43:06.065Z,10.98
2022-12-01T19:45:33.762Z,10.99
2022-12-01T19:48:00.611Z,10.96
2022-12-01T19:50:27.166Z,10.92
2022-12-01T19:52:53.653Z,10.90
2022-12-01T19:55:20.353Z,10.88
2022-12-01T19:57:51.402Z,10.86
2022-12-01T20:00:18.967Z,10.83
2022-12-01T20:02:45.563Z,10.77
2022-12-01T20:05:12.140Z,10.71
2022-12-01T20:07:38.849Z,10.65
2022-12-01T20:10:05.956Z,10.57
2022-12-01T20:12:34.466Z,10.54
2022-12-01T20:15:01.257Z,10.48
2022-12-01T20:17:28.099Z,10.43
2022-12-01T20:19:54.604Z,10.39
2022-12-01T20:22:21.051Z,10.33
2022-12-01T20:24:47.918Z,10.23
2022-12-01T20:27:14.530Z,10.18
2022-12-01T20:29:41.189Z,10.11
2022-12-01T20:32:07.769Z,10.09
2022-12-01T20:34:36.322Z,10.11
2022-12-01T20:37:03.109Z,10.10
2022-12-01T20:39:32.367Z,10.05
2022-12-01T20:41:58.959Z,9.98
2022-12-01T20:44:25.564Z,9.87
2022-12-01T20:46:52.468Z,9.73
2022-12-01T20:49:19.845Z,9.59
2022-12-01T20:51:46.676Z,9.43
2022-12-01T20:54:30.537Z,9.31
2022-12-01T20:56:58.127Z,9.19
2022-12-01T20:59:24.919Z,9.11
2022-12-01T21:01:51.465Z,9.03
2022-12-01T21:04:18.347Z,8.94
2022-12-01T21:06:44.975Z,8.87
2022-12-01T21:09:13.044Z,8.83
2022-12-01T21:12:04.890Z,8.81
2022-12-01T21:15:02.401Z,8.76
2022-12-01T21:17:29.100Z,8.73
2022-12-01T21:20:09.762Z,8.72
2022-12-01T21:22:36.304Z,8.71
2022-12-01T21:25:11.410Z,8.71
2022-12-01T21:27:37.969Z,8.70
2022-12-01T21:30:15.039Z,8.67
2022-12-01T21:32:44.251Z,8.67
2022-12-01T21:35:16.099Z,8.65
2022-12-01T21:37:42.674Z,8.65
2022-12-01T21:40:19.580Z,8.62
2022-12-01T21:42:46.175Z,8.64
2022-12-01T21:45:19.471Z,8.66
2022-12-01T21:47:46.202Z,8.65
2022-12-01T21:50:21.048Z,8.66
2022-12-01T21:52:48.323Z,8.64
2022-12-01T21:55:15.011Z,8.65
2022-12-01T21:57:48.307Z,8.65
2022-12-01T22:00:35.471Z,8.67
2022-12-01T22:03:29.720Z,8.70
2022-12-01T22:06:28.941Z,8.69
2022-12-01T22:08:56.110Z,8.73
2022-12-01T22:11:27.931Z,8.79
2022-12-01T22:14:23.002Z,8.83
2022-12-01T22:16:52.495Z,8.86
2022-12-01T22:19:29.586Z,8.85
2022-12-01T22:22:15.794Z,8.86
2022-12-01T22:24:43.630Z,8.90
2022-12-01T22:27:27.072Z,8.94
2022-12-01T22:30:20.441Z,8.96
2022-12-01T22:33:13.375Z,8.96
2022-12-01T22:36:00.957Z,8.94
2022-12-01T22:38:27.661Z,8.94
2022-12-01T22:41:04.244Z,8.96
2022-12-01T22:43:49.482Z,8.94
2022-12-01T22:46:42.101Z,8.93
2022-12-01T22:49:22.335Z,8.94
2022-12-01T22:51:55.141Z,8.96
2022-12-01T22:54:29.096Z,8.94
2022-12-01T22:57:05.050Z,8.87
2022-12-01T22:59:35.463Z,8.89
2022-12-01T23:02:23.573Z,8.88
2022-12-01T23:04:59.998Z,8.91
2022-12-01T23:07:35.494Z,8.91
2022-12-01T23:10:23.481Z,8.93
2022-12-01T23:12:52.045Z,8.95
2022-12-01T23:15:33.973Z,8.95
2022-12-01T23:18:20.656Z,8.93
2022-12-01T23:20:51.894Z,8.95
2022-12-01T23:23:26.018Z,8.97
2022-12-01T23:25:52.503Z,8.97
2022-12-01T23:28:19.462Z,8.95
2022-12-01T23:30:48.280Z,8.94
2022-12-01T23:33:37.502Z,8.96
2022-12-01T23:36:14.821Z,8.97
2022-12-01T23:38:43.446Z,8.96
2022-12-01T23:41:15.351Z,8.97
2022-12-01T23:43:43.591Z,8.95
2022-12-01T23:46:19.064Z,8.95
2022-12-01T23:48:52.168Z,8.95
2022-12-01T23:51:23.591Z,8.95
2022-12-01T23:53:51.819Z,8.98
2022-12-01T23:56:23.581Z,9.00
2022-12-01T23:58:51.236Z,8.97
